Time;durP1;ratioP1;P1;durP2;ratioP2;P2;SDS_P1;SDS_P2;PMS_P1;PMS_P2;Temp;Humidity;BMP_temperature;BMP_pressure;BME280_temperature;BME280_humidity;BME280_pressure;Samples;Min_cycle;Max_cycle;Signal;HPM_P1;HPM_P2
2022/08/14 00:00:39;;;;;;;11.15;10.05;;;;;;;;;;5072618;28;20029;-67
2022/08/14 00:03:05;;;;;;;11.60;10.50;;;;;;;;;;5070897;28;20070;-69
2022/08/14 00:05:31;;;;;;;12.63;10.50;;;;;;;;;;5075693;28;20028;-67
2022/08/14 00:07:57;;;;;;;11.63;9.95;;;;;;;;;;5095031;28;20028;-65
2022/08/14 00:10:23;;;;;;;11.00;9.95;;;;;;;;;;5086245;28;20095;-66
2022/08/14 00:12:51;;;;;;;15.88;14.07;;;;;;;;;;5075521;28;20036;-68
2022/08/14 00:15:30;;;;;;;12.68;11.38;;;;;;;;;;5075857;28;20025;-68
2022/08/14 00:18:00;;;;;;;12.05;10.80;;;;;;;;;;5075583;28;20036;-65
2022/08/14 00:20:29;;;;;;;12.35;10.88;;;;;;;;;;5075540;28;20027;-66
2022/08/14 00:22:55;;;;;;;11.50;10.40;;;;;;;;;;5075274;28;20485;-71
2022/08/14 00:25:21;;;;;;;10.80;9.80;;;;;;;;;;5075437;28;20150;-66
2022/08/14 00:27:47;;;;;;;11.90;10.38;;;;;;;;;;5075117;28;20355;-67
2022/08/14 00:30:16;;;;;;;10.73;9.70;;;;;;;;;;5075164;28;20498;-73
2022/08/14 00:32:43;;;;;;;13.07;10.10;;;;;;;;;;5075151;28;20025;-68
2022/08/14 00:35:10;;;;;;;11.65;10.45;;;;;;;;;;5089214;28;20478;-70
2022/08/14 00:37:38;;;;;;;11.68;10.48;;;;;;;;;;5075978;28;20063;-72
2022/08/14 00:40:05;;;;;;;11.50;10.30;;;;;;;;;;5075195;28;20024;-73
2022/08/14 00:42:31;;;;;;;10.60;9.60;;;;;;;;;;5084021;28;20066;-75
2022/08/14 00:44:57;;;;;;;12.93;10.65;;;;;;;;;;5080143;28;20028;-63
2022/08/14 00:47:24;;;;;;;11.18;10.02;;;;;;;;;;5075047;28;20465;-67
2022/08/14 00:49:52;;;;;;;10.80;9.70;;;;;;;;;;5075006;28;20104;-64
2022/08/14 00:52:19;;;;;;;11.82;9.88;;;;;;;;;;5074970;28;20051;-69
2022/08/14 00:54:46;;;;;;;13.75;10.85;;;;;;;;;;5074771;28;20111;-68
2022/08/14 00:57:15;;;;;;;10.98;9.88;;;;;;;;;;5084630;28;20460;-66
2022/08/14 00:59:41;;;;;;;14.05;11.60;;;;;;;;;;5075051;28;20017;-71
2022/08/14 01:02:07;;;;;;;11.65;9.65;;;;;;;;;;5074915;28;20032;-66
2022/08/14 01:04:34;;;;;;;11.55;10.10;;;;;;;;;;5074987;28;20107;-65
2022/08/14 01:07:06;;;;;;;11.77;10.68;;;;;;;;;;5086106;28;20398;-68
2022/08/14 01:09:33;;;;;;;;;;;;;;;;;;5078440;28;20017;-66
2022/08/14 01:12:00;;;;;;;12.98;9.02;;;;;;;;;;5075105;28;19911;-67
2022/08/14 01:14:26;;;;;;;11.68;10.20;;;;;;;;;;5074694;28;20025;-71
2022/08/14 01:16:52;;;;;;;10.85;9.85;;;;;;;;;;5073861;28;20091;-73
2022/08/14 01:22:06;;;;;;;10.10;9.10;;;;;;;;;;5074391;28;20116;-70
2022/08/14 01:24:33;;;;;;;10.98;9.48;;;;;;;;;;5074326;28;20012;-66
2022/08/14 01:26:59;;;;;;;10.15;9.13;;;;;;;;;;5074371;28;20027;-70
2022/08/14 01:29:26;;;;;;;10.65;9.40;;;;;;;;;;5073801;28;20025;-69
2022/08/14 01:31:52;;;;;;;10.77;9.20;;;;;;;;;;5074209;28;20032;-67
2022/08/14 01:34:22;;;;;;;11.18;9.57;;;;;;;;;;5085413;28;20536;-73
2022/08/14 01:36:48;;;;;;;10.15;9.15;;;;;;;;;;5082835;28;20045;-71
2022/08/14 01:39:16;;;;;;;9.82;8.98;;;;;;;;;;5074117;28;20023;-72
2022/08/14 01:41:44;;;;;;;10.45;9.45;;;;;;;;;;5073813;28;20023;-75
2022/08/14 01:44:14;;;;;;;9.45;8.65;;;;;;;;;;5073745;28;20054;-74
2022/08/14 01:46:41;;;;;;;9.88;8.98;;;;;;;;;;5073790;28;20016;-70
2022/08/14 01:49:08;;;;;;;10.70;9.70;;;;;;;;;;5073772;28;20027;-71
2022/08/14 01:51:35;;;;;;;10.45;9.15;;;;;;;;;;5073748;28;20031;-75
2022/08/14 01:54:04;;;;;;;10.73;9.52;;;;;;;;;;5074405;28;20103;-73
2022/08/14 01:56:36;;;;;;;11.05;9.95;;;;;;;;;;5083879;28;20043;-71
2022/08/14 01:59:03;;;;;;;10.30;9.30;;;;;;;;;;5083762;28;20048;-71
2022/08/14 02:01:29;;;;;;;10.88;9.85;;;;;;;;;;5079320;28;20056;-69
2022/08/14 02:03:56;;;;;;;10.13;9.23;;;;;;;;;;5082755;28;20478;-71
2022/08/14 02:06:25;;;;;;;10.23;9.23;;;;;;;;;;5073251;28;20446;-71
2022/08/14 02:08:51;;;;;;;9.75;8.80;;;;;;;;;;5073544;28;20009;-72
2022/08/14 02:11:21;;;;;;;9.50;8.60;;;;;;;;;;5072367;28;20112;-74
2022/08/14 02:14:07;;;;;;;9.50;8.50;;;;;;;;;;5073400;28;20019;-72
2022/08/14 02:16:41;;;;;;;10.55;9.55;;;;;;;;;;5073469;28;20036;-73
2022/08/14 02:19:10;;;;;;;10.20;9.23;;;;;;;;;;5073438;28;20040;-73
2022/08/14 02:21:37;;;;;;;9.38;8.48;;;;;;;;;;5073437;28;20391;-71
2022/08/14 02:24:05;;;;;;;10.27;9.27;;;;;;;;;;5073287;28;20024;-72
2022/08/14 02:26:32;;;;;;;9.93;9.02;;;;;;;;;;5073298;28;20107;-69
2022/08/14 02:29:04;;;;;;;11.18;8.68;;;;;;;;;;5071886;28;20099;-70
2022/08/14 02:31:31;;;;;;;11.13;9.77;;;;;;;;;;5080004;28;20091;-68
2022/08/14 02:34:09;;;;;;;9.43;8.52;;;;;;;;;;5086769;28;20031;-68
2022/08/14 02:36:36;;;;;;;10.15;8.95;;;;;;;;;;5081931;28;20392;-67
2022/08/14 02:39:02;;;;;;;10.15;9.18;;;;;;;;;;5072878;28;20536;-70
2022/08/14 02:41:28;;;;;;;11.20;10.20;;;;;;;;;;5072475;28;20171;-68
2022/08/14 02:43:54;;;;;;;11.20;10.05;;;;;;;;;;5072920;28;20023;-68
2022/08/14 02:46:21;;;;;;;10.63;9.63;;;;;;;;;;5072666;28;20021;-69
2022/08/14 02:48:47;;;;;;;11.10;9.98;;;;;;;;;;5070474;28;20425;-70
2022/08/14 02:51:14;;;;;;;10.93;9.80;;;;;;;;;;5072544;28;20092;-70
2022/08/14 02:53:41;;;;;;;10.75;9.75;;;;;;;;;;5072138;28;20028;-69
2022/08/14 02:56:09;;;;;;;10.50;9.32;;;;;;;;;;5072439;28;20041;-69
2022/08/14 02:58:37;;;;;;;10.77;9.77;;;;;;;;;;5072440;28;20048;-69
2022/08/14 03:01:03;;;;;;;10.73;9.73;;;;;;;;;;5072373;28;20016;-68
2022/08/14 03:03:30;;;;;;;11.07;10.00;;;;;;;;;;5072305;28;20059;-68
2022/08/14 03:05:56;;;;;;;10.35;9.35;;;;;;;;;;5074760;28;20021;-69
2022/08/14 03:08:30;;;;;;;10.63;9.60;;;;;;;;;;5081019;28;20020;-70
2022/08/14 03:10:56;;;;;;;9.82;8.93;;;;;;;;;;5072280;28;20027;-69
2022/08/14 03:13:23;;;;;;;10.40;9.45;;;;;;;;;;5072306;28;20039;-69
2022/08/14 03:15:52;;;;;;;10.77;9.73;;;;;;;;;;5072008;28;20013;-69
2022/08/14 03:18:20;;;;;;;10.30;9.35;;;;;;;;;;5072439;28;20021;-68
2022/08/14 03:20:47;;;;;;;10.98;9.82;;;;;;;;;;5072659;28;20697;-69
2022/08/14 03:23:13;;;;;;;10.70;9.70;;;;;;;;;;5070718;28;20032;-69
2022/08/14 03:25:39;;;;;;;11.82;9.77;;;;;;;;;;5072229;28;20048;-68
2022/08/14 03:28:06;;;;;;;10.00;9.00;;;;;;;;;;5072231;28;20024;-70
2022/08/14 03:30:33;;;;;;;9.52;8.65;;;;;;;;;;5074775;28;20028;-68
2022/08/14 03:32:59;;;;;;;10.13;9.10;;;;;;;;;;5082529;28;20031;-72
2022/08/14 03:35:26;;;;;;;9.07;8.27;;;;;;;;;;5085508;28;20029;-72
2022/08/14 03:37:52;;;;;;;9.80;8.90;;;;;;;;;;5077463;28;20048;-72
2022/08/14 03:40:23;;;;;;;9.73;8.70;;;;;;;;;;5072307;28;20021;-73
2022/08/14 03:42:50;;;;;;;10.63;9.73;;;;;;;;;;5078956;28;20052;-73
2022/08/14 03:45:17;;;;;;;10.48;9.43;;;;;;;;;;5078437;28;20596;-73
2022/08/14 03:47:43;;;;;;;10.18;9.00;;;;;;;;;;5078512;28;20062;-74
2022/08/14 03:50:10;;;;;;;10.75;9.70;;;;;;;;;;5078293;28;20104;-72
2022/08/14 03:52:37;;;;;;;9.70;8.70;;;;;;;;;;5078523;28;20020;-74
2022/08/14 03:55:05;;;;;;;8.98;8.13;;;;;;;;;;5078618;28;20048;-73
2022/08/14 03:57:31;;;;;;;9.75;8.85;;;;;;;;;;5084487;28;20042;-73
2022/08/14 04:00:01;;;;;;;10.15;9.15;;;;;;;;;;5085359;28;20058;-69
2022/08/14 04:02:28;;;;;;;10.15;9.15;;;;;;;;;;5078699;28;20454;-74
2022/08/14 04:04:54;;;;;;;9.32;8.43;;;;;;;;;;5078400;28;20467;-65
2022/08/14 04:07:21;;;;;;;10.05;9.05;;;;;;;;;;5087806;28;20548;-67
2022/08/14 04:09:47;;;;;;;9.63;8.73;;;;;;;;;;5078360;28;20525;-69
2022/08/14 04:12:13;;;;;;;10.40;9.32;;;;;;;;;;5078248;28;20048;-69
2022/08/14 04:14:39;;;;;;;9.98;9.00;;;;;;;;;;5078539;28;20479;-69
2022/08/14 04:17:05;;;;;;;9.15;8.23;;;;;;;;;;5078402;28;20028;-65
2022/08/14 04:19:31;;;;;;;9.40;7.97;;;;;;;;;;5081649;28;20095;-65
2022/08/14 04:21:58;;;;;;;9.80;8.80;;;;;;;;;;5087704;28;20505;-69
2022/08/14 04:24:24;;;;;;;9.05;8.23;;;;;;;;;;5078168;28;20123;-70
2022/08/14 04:26:50;;;;;;;9.40;8.50;;;;;;;;;;5078366;28;20383;-65
2022/08/14 04:29:16;;;;;;;10.10;9.10;;;;;;;;;;5078545;28;20369;-67
2022/08/14 04:31:43;;;;;;;10.13;8.98;;;;;;;;;;5089326;28;20024;-66
2022/08/14 04:34:09;;;;;;;9.80;8.35;;;;;;;;;;5088758;28;20103;-68
2022/08/14 04:43:34;;;;;;;9.13;8.23;;;;;;;;;;5086596;28;20056;-66
2022/08/14 04:44:51;;;;;;;9.43;8.52;;;;;;;;;;5077999;28;20032;-66
2022/08/14 04:50:03;;;;;;;9.38;8.48;;;;;;;;;;5078146;28;20170;-65
2022/08/14 04:52:29;;;;;;;8.90;8.10;;;;;;;;;;5075059;28;20024;-65
2022/08/14 04:54:56;;;;;;;12.18;8.93;;;;;;;;;;5075314;28;20020;-64
2022/08/14 04:57:23;;;;;;;9.05;8.25;;;;;;;;;;5074545;28;20040;-67
2022/08/14 04:59:51;;;;;;;9.77;8.10;;;;;;;;;;5074781;28;20013;-66
2022/08/14 05:02:17;;;;;;;9.52;8.52;;;;;;;;;;5072614;28;20037;-67
2022/08/14 05:04:43;;;;;;;10.60;8.18;;;;;;;;;;5074778;28;20391;-65
2022/08/14 05:07:09;;;;;;;9.25;8.20;;;;;;;;;;5086051;28;20081;-64
2022/08/14 05:09:36;;;;;;;8.90;8.00;;;;;;;;;;5074494;28;20023;-66
2022/08/14 05:12:02;;;;;;;9.30;8.40;;;;;;;;;;5074458;28;20028;-65
2022/08/14 05:14:28;;;;;;;9.32;8.45;;;;;;;;;;5074730;28;20078;-64
2022/08/14 05:16:56;;;;;;;10.85;9.40;;;;;;;;;;5087112;28;20038;-65
2022/08/14 05:19:26;;;;;;;10.88;9.73;;;;;;;;;;5074455;28;20052;-66
2022/08/14 05:21:57;;;;;;;13.75;8.70;;;;;;;;;;5074363;28;20013;-67
2022/08/14 05:24:23;;;;;;;9.77;8.88;;;;;;;;;;5074250;28;20033;-64
2022/08/14 05:26:49;;;;;;;9.88;8.98;;;;;;;;;;5073925;28;20029;-65
2022/08/14 05:29:16;;;;;;;9.95;8.95;;;;;;;;;;5074252;28;20538;-66
2022/08/14 05:31:42;;;;;;;9.90;8.90;;;;;;;;;;5073826;28;20464;-66
2022/08/14 05:34:09;;;;;;;12.38;10.75;;;;;;;;;;5084113;28;20023;-66
2022/08/14 05:36:36;;;;;;;10.60;9.60;;;;;;;;;;5087926;28;20087;-68
2022/08/14 05:39:03;;;;;;;12.50;11.20;;;;;;;;;;5074255;28;20055;-66
2022/08/14 05:41:29;;;;;;;10.90;9.90;;;;;;;;;;5074188;28;20029;-64
2022/08/14 05:43:55;;;;;;;10.77;9.77;;;;;;;;;;5085291;28;20149;-66
2022/08/14 05:46:21;;;;;;;11.55;10.20;;;;;;;;;;5073743;28;20035;-64
2022/08/14 05:48:48;;;;;;;11.10;9.88;;;;;;;;;;5073919;28;20031;-64
2022/08/14 05:51:15;;;;;;;14.48;9.32;;;;;;;;;;5073980;28;20102;-63
2022/08/14 05:53:41;;;;;;;10.57;9.50;;;;;;;;;;5079191;28;20686;-67
2022/08/14 05:56:07;;;;;;;12.38;9.70;;;;;;;;;;5081597;28;20363;-64
2022/08/14 05:58:33;;;;;;;10.73;9.63;;;;;;;;;;5073699;28;20103;-66
2022/08/14 06:00:59;;;;;;;12.50;10.68;;;;;;;;;;5073503;28;20017;-64
2022/08/14 06:03:25;;;;;;;11.25;10.10;;;;;;;;;;5073469;28;20024;-65
2022/08/14 06:05:52;;;;;;;13.10;10.00;;;;;;;;;;5073999;28;20017;-65
2022/08/14 06:08:22;;;;;;;15.95;13.05;;;;;;;;;;5080310;28;20363;-65
2022/08/14 06:10:49;;;;;;;19.17;12.70;;;;;;;;;;5073617;28;20116;-65
2022/08/14 06:13:15;;;;;;;19.60;16.05;;;;;;;;;;5075738;28;20107;-67
2022/08/14 06:15:42;;;;;;;24.98;20.55;;;;;;;;;;5075747;28;20013;-69
2022/08/14 06:18:08;;;;;;;22.08;16.27;;;;;;;;;;5073002;28;20032;-64
2022/08/14 06:20:34;;;;;;;21.77;15.15;;;;;;;;;;5086951;28;20021;-65
2022/08/14 06:23:00;;;;;;;14.73;12.98;;;;;;;;;;5074178;28;20029;-64
2022/08/14 06:25:26;;;;;;;16.95;14.85;;;;;;;;;;5076399;28;20039;-65
2022/08/14 06:27:53;;;;;;;18.55;15.88;;;;;;;;;;5072724;28;20165;-65
2022/08/14 06:30:24;;;;;;;15.65;14.05;;;;;;;;;;5080156;28;20031;-63
2022/08/14 06:32:50;;;;;;;14.60;13.13;;;;;;;;;;5075573;28;20136;-69
2022/08/14 06:35:19;;;;;;;22.17;14.32;;;;;;;;;;5087405;28;20056;-71
2022/08/14 06:37:52;;;;;;;18.10;13.00;;;;;;;;;;5084479;28;20051;-76
2022/08/14 06:40:23;;;;;;;15.55;13.90;;;;;;;;;;5074233;28;20109;-71
2022/08/14 06:42:49;;;;;;;14.90;13.40;;;;;;;;;;5073308;28;20020;-74
2022/08/14 06:45:15;;;;;;;14.27;12.00;;;;;;;;;;5071876;28;20066;-63
2022/08/14 06:47:42;;;;;;;15.75;13.77;;;;;;;;;;5072537;28;20066;-64
2022/08/14 06:50:10;;;;;;;14.50;13.10;;;;;;;;;;5072691;28;20107;-64
2022/08/14 06:52:36;;;;;;;15.82;14.13;;;;;;;;;;5072481;28;20020;-65
2022/08/14 06:55:03;;;;;;;15.48;13.85;;;;;;;;;;5072546;28;20430;-64
2022/08/14 06:57:37;;;;;;;17.85;14.60;;;;;;;;;;5072493;28;20090;-65
2022/08/14 07:00:05;;;;;;;17.42;14.70;;;;;;;;;;5072582;28;20016;-64
2022/08/14 07:08:00;;;;;;;16.48;14.70;;;;;;;;;;5082112;28;20051;-65
2022/08/14 07:10:26;;;;;;;18.02;15.45;;;;;;;;;;5072353;28;20048;-68
2022/08/14 07:12:53;;;;;;;17.35;15.52;;;;;;;;;;5072089;28;20044;-65
2022/08/14 07:15:19;;;;;;;17.85;16.00;;;;;;;;;;5070651;28;20021;-70
2022/08/14 07:17:48;;;;;;;17.30;15.60;;;;;;;;;;5072022;28;20525;-69
2022/08/14 07:20:19;;;;;;;18.60;15.95;;;;;;;;;;5072175;28;20020;-66
2022/08/14 07:22:45;;;;;;;16.85;15.05;;;;;;;;;;5072125;28;20009;-66
2022/08/14 07:25:11;;;;;;;16.98;15.20;;;;;;;;;;5072176;28;20422;-65
2022/08/14 07:27:38;;;;;;;18.02;15.70;;;;;;;;;;5071941;28;20024;-68
2022/08/14 07:30:05;;;;;;;17.25;15.45;;;;;;;;;;5072226;28;20027;-70
2022/08/14 07:32:31;;;;;;;26.02;20.20;;;;;;;;;;5071883;28;20047;-67
2022/08/14 07:34:57;;;;;;;21.10;18.27;;;;;;;;;;5086119;28;20498;-75
2022/08/14 07:37:23;;;;;;;18.90;17.00;;;;;;;;;;5076016;28;20048;-69
2022/08/14 07:39:50;;;;;;;19.30;16.80;;;;;;;;;;5072423;28;20024;-69
2022/08/14 07:42:16;;;;;;;17.27;15.57;;;;;;;;;;5072455;28;20126;-66
2022/08/14 07:44:43;;;;;;;17.33;15.52;;;;;;;;;;5072373;28;20028;-64
2022/08/14 07:47:09;;;;;;;18.10;16.20;;;;;;;;;;5077143;28;20023;-65
2022/08/14 07:49:35;;;;;;;20.02;16.90;;;;;;;;;;5081142;28;20406;-70
2022/08/14 07:52:02;;;;;;;18.00;16.23;;;;;;;;;;5072178;28;20021;-72
2022/08/14 07:54:30;;;;;;;20.33;16.80;;;;;;;;;;5072195;28;20019;-71
2022/08/14 07:56:56;;;;;;;19.05;16.52;;;;;;;;;;5072317;28;20471;-80
2022/08/14 07:59:23;;;;;;;18.63;16.73;;;;;;;;;;5072381;28;20025;-65
2022/08/14 08:01:49;;;;;;;18.05;16.13;;;;;;;;;;5071982;28;20027;-66
2022/08/14 08:04:15;;;;;;;17.08;14.80;;;;;;;;;;5072085;28;20045;-65
2022/08/14 08:06:41;;;;;;;16.95;15.25;;;;;;;;;;5079035;28;20028;-66
2022/08/14 08:09:09;;;;;;;14.50;13.10;;;;;;;;;;5074187;28;20044;-65
2022/08/14 08:11:36;;;;;;;15.75;14.13;;;;;;;;;;5070237;28;20406;-66
2022/08/14 08:14:05;;;;;;;17.65;15.93;;;;;;;;;;5071473;28;20020;-66
2022/08/14 08:16:32;;;;;;;19.00;13.98;;;;;;;;;;5071668;28;20033;-65
2022/08/14 08:18:58;;;;;;;16.17;14.57;;;;;;;;;;5071490;28;20032;-71
2022/08/14 08:21:25;;;;;;;16.20;14.63;;;;;;;;;;5071809;28;20261;-66
2022/08/14 08:23:52;;;;;;;15.70;13.82;;;;;;;;;;5071635;28;20047;-69
2022/08/14 08:26:19;;;;;;;15.80;14.18;;;;;;;;;;5071891;28;20093;-67
2022/08/14 08:28:55;;;;;;;16.23;14.52;;;;;;;;;;5074715;28;20452;-67
2022/08/14 08:31:21;;;;;;;17.35;15.60;;;;;;;;;;5075136;28;20467;-65
2022/08/14 08:33:51;;;;;;;17.08;14.95;;;;;;;;;;5082055;28;20020;-66
2022/08/14 08:36:17;;;;;;;15.23;13.63;;;;;;;;;;5085051;28;20047;-67
2022/08/14 08:38:44;;;;;;;17.40;15.65;;;;;;;;;;5075753;28;20494;-77
2022/08/14 08:41:11;;;;;;;16.17;14.60;;;;;;;;;;5075236;28;20013;-74
2022/08/14 08:43:37;;;;;;;17.73;15.65;;;;;;;;;;5074844;28;20031;-70
2022/08/14 08:46:07;;;;;;;17.58;14.95;;;;;;;;;;5075698;28;20070;-70
2022/08/14 08:48:45;;;;;;;17.73;16.02;;;;;;;;;;5074652;28;20024;-74
2022/08/14 08:51:21;;;;;;;19.30;17.42;;;;;;;;;;5074963;28;20082;-76
2022/08/14 08:53:55;;;;;;;18.10;16.20;;;;;;;;;;5074702;28;20024;-75
2022/08/14 08:56:32;;;;;;;22.17;15.85;;;;;;;;;;5074831;28;20040;-79
2022/08/14 08:58:58;;;;;;;17.38;15.57;;;;;;;;;;5074704;28;20024;-78
2022/08/14 09:01:28;;;;;;;16.90;15.20;;;;;;;;;;5075033;28;20066;-77
2022/08/14 09:04:01;;;;;;;15.60;14.07;;;;;;;;;;5074537;28;20017;-75
2022/08/14 09:06:27;;;;;;;17.70;15.68;;;;;;;;;;5079773;28;20043;-71
2022/08/14 09:08:54;;;;;;;15.07;13.68;;;;;;;;;;5078532;28;20364;-76
2022/08/14 09:11:22;;;;;;;17.33;15.55;;;;;;;;;;5074588;28;20020;-69
2022/08/14 09:13:52;;;;;;;17.70;15.18;;;;;;;;;;5074479;28;20032;-71
2022/08/14 09:16:19;;;;;;;18.73;16.33;;;;;;;;;;5074339;28;20064;-75
2022/08/14 09:18:46;;;;;;;21.20;19.00;;;;;;;;;;5074424;28;20021;-71
2022/08/14 09:21:12;;;;;;;18.45;16.63;;;;;;;;;;5074230;28;20024;-77
2022/08/14 09:23:39;;;;;;;18.17;16.38;;;;;;;;;;5072941;28;20448;-72
2022/08/14 09:26:05;;;;;;;18.60;16.70;;;;;;;;;;5074597;28;20356;-75
2022/08/14 09:28:31;;;;;;;18.98;17.08;;;;;;;;;;5074213;28;20024;-71
2022/08/14 09:30:58;;;;;;;17.98;16.17;;;;;;;;;;5074046;28;20029;-70
2022/08/14 09:33:33;;;;;;;19.55;17.45;;;;;;;;;;5078009;28;20016;-75
2022/08/14 09:36:02;;;;;;;18.50;16.60;;;;;;;;;;5083711;28;20204;-75
2022/08/14 09:38:31;;;;;;;19.38;17.27;;;;;;;;;;5075976;28;20479;-75
2022/08/14 09:41:09;;;;;;;17.55;15.70;;;;;;;;;;5073855;28;20478;-77
2022/08/14 09:43:53;;;;;;;18.50;16.65;;;;;;;;;;5073886;28;20020;-75
2022/08/14 09:46:20;;;;;;;19.95;16.67;;;;;;;;;;5074029;28;20021;-71
2022/08/14 09:48:57;;;;;;;18.45;16.52;;;;;;;;;;5071891;28;20071;-69
2022/08/14 09:51:23;;;;;;;18.67;15.82;;;;;;;;;;5073891;28;20031;-74
2022/08/14 09:53:59;;;;;;;20.17;16.13;;;;;;;;;;5073917;28;20054;-67
2022/08/14 09:56:25;;;;;;;19.48;17.55;;;;;;;;;;5073546;28;20094;-77
2022/08/14 09:58:52;;;;;;;19.40;17.42;;;;;;;;;;5073904;28;20095;-75
2022/08/14 10:01:18;;;;;;;19.05;17.05;;;;;;;;;;5074045;28;20074;-72
2022/08/14 10:03:55;;;;;;;18.45;16.60;;;;;;;;;;5073700;28;20585;-73
2022/08/14 10:06:28;;;;;;;17.42;15.80;;;;;;;;;;5077599;28;20032;-72
2022/08/14 10:09:00;;;;;;;18.17;16.38;;;;;;;;;;5077594;28;20111;-80
2022/08/14 10:11:29;;;;;;;20.25;18.05;;;;;;;;;;5073930;28;20021;-67
2022/08/14 10:13:58;;;;;;;20.88;18.77;;;;;;;;;;5073678;28;20454;-76
2022/08/14 10:16:27;;;;;;;24.58;21.98;;;;;;;;;;5073730;28;20033;-73
2022/08/14 10:19:02;;;;;;;21.73;19.55;;;;;;;;;;5073166;28;20016;-78
2022/08/14 10:21:28;;;;;;;21.25;19.15;;;;;;;;;;5073289;28;20031;-76
2022/08/14 10:23:54;;;;;;;18.95;17.05;;;;;;;;;;5073288;28;20159;-75
2022/08/14 10:26:20;;;;;;;19.23;17.25;;;;;;;;;;5073084;28;20025;-74
2022/08/14 10:28:53;;;;;;;19.60;17.63;;;;;;;;;;5073128;28;20490;-78
2022/08/14 10:31:23;;;;;;;18.70;16.90;;;;;;;;;;5072729;28;20024;-67
2022/08/14 10:34:06;;;;;;;19.50;17.50;;;;;;;;;;5080024;28;20494;-73
2022/08/14 10:36:34;;;;;;;19.92;17.83;;;;;;;;;;5079165;28;20059;-74
2022/08/14 10:39:01;;;;;;;19.10;17.10;;;;;;;;;;5072686;28;20028;-78
2022/08/14 10:41:35;;;;;;;20.40;18.10;;;;;;;;;;5072687;28;20021;-72
2022/08/14 10:44:06;;;;;;;17.85;16.15;;;;;;;;;;5072505;28;20012;-74
2022/08/14 10:46:32;;;;;;;;;;;;;;;;;;5073455;28;20051;-77
2022/08/14 10:49:02;;;;;;;18.70;16.80;;;;;;;;;;5072790;28;20335;-77
2022/08/14 10:51:29;;;;;;;18.20;16.50;;;;;;;;;;5071806;28;20054;-70
2022/08/14 10:53:56;;;;;;;18.58;16.67;;;;;;;;;;5072261;28;20025;-73
2022/08/14 10:56:34;;;;;;;18.90;16.85;;;;;;;;;;5072373;28;20035;-72
2022/08/14 10:59:04;;;;;;;19.60;17.52;;;;;;;;;;5072449;28;20024;-71
2022/08/14 11:01:31;;;;;;;18.23;16.42;;;;;;;;;;5072377;28;20021;-71
2022/08/14 11:03:57;;;;;;;19.33;17.45;;;;;;;;;;5072222;28;20118;-79
2022/08/14 11:06:24;;;;;;;19.48;17.40;;;;;;;;;;5076433;28;20020;-70
2022/08/14 11:08:51;;;;;;;24.05;20.50;;;;;;;;;;5077087;28;20115;-67
2022/08/14 11:11:17;;;;;;;22.90;19.85;;;;;;;;;;5073048;28;20040;-74
2022/08/14 11:13:45;;;;;;;21.27;18.60;;;;;;;;;;5072541;28;20056;-66
2022/08/14 11:16:12;;;;;;;18.65;16.85;;;;;;;;;;5072200;28;20471;-71
2022/08/14 11:18:40;;;;;;;19.02;17.13;;;;;;;;;;5072126;28;20107;-73
2022/08/14 11:21:07;;;;;;;18.70;16.70;;;;;;;;;;5072175;28;20228;-73
2022/08/14 11:23:37;;;;;;;21.63;17.75;;;;;;;;;;5071135;28;20086;-74
2022/08/14 11:26:05;;;;;;;21.48;18.90;;;;;;;;;;5071998;28;20023;-74
2022/08/14 11:28:37;;;;;;;18.75;16.83;;;;;;;;;;5072201;28;20021;-71
2022/08/14 11:31:04;;;;;;;20.27;18.17;;;;;;;;;;5071972;28;20025;-75
2022/08/14 11:33:33;;;;;;;18.42;16.52;;;;;;;;;;5076468;28;20016;-76
2022/08/14 11:36:00;;;;;;;19.10;17.20;;;;;;;;;;5081250;28;20132;-74
2022/08/14 11:38:27;;;;;;;17.70;15.90;;;;;;;;;;5074562;28;20400;-78
2022/08/14 11:40:55;;;;;;;18.30;16.42;;;;;;;;;;5071844;28;20021;-76
2022/08/14 11:43:24;;;;;;;19.27;17.02;;;;;;;;;;5071935;28;20024;-76
2022/08/14 11:45:50;;;;;;;18.98;16.77;;;;;;;;;;5071964;28;20107;-75
2022/08/14 11:48:18;;;;;;;17.35;15.52;;;;;;;;;;5071784;28;20430;-76
2022/08/14 11:50:44;;;;;;;17.10;15.35;;;;;;;;;;5071767;28;20463;-71
2022/08/14 11:53:21;;;;;;;15.23;13.75;;;;;;;;;;5071900;28;20031;-80
2022/08/14 11:55:49;;;;;;;17.15;15.35;;;;;;;;;;5072312;28;20020;-67
2022/08/14 11:58:16;;;;;;;16.30;14.65;;;;;;;;;;5070790;28;20033;-70
2022/08/14 12:00:49;;;;;;;14.75;13.15;;;;;;;;;;5086489;28;20012;-68
2022/08/14 12:03:15;;;;;;;16.30;14.55;;;;;;;;;;5076022;28;20486;-67
2022/08/14 12:05:42;;;;;;;19.55;16.20;;;;;;;;;;5076550;28;20031;-71
2022/08/14 12:08:09;;;;;;;13.23;11.95;;;;;;;;;;5076294;28;20037;-76
2022/08/14 12:10:36;;;;;;;15.35;13.75;;;;;;;;;;5076358;28;20023;-78
2022/08/14 12:13:13;;;;;;;13.57;12.27;;;;;;;;;;5076488;28;20070;-80
2022/08/14 12:15:39;;;;;;;14.10;12.73;;;;;;;;;;5076279;28;20021;-75
2022/08/14 12:18:06;;;;;;;14.60;12.35;;;;;;;;;;5076166;28;20030;-75
2022/08/14 12:20:33;;;;;;;14.55;13.15;;;;;;;;;;5076256;28;20021;-79
2022/08/14 12:23:03;;;;;;;12.38;11.07;;;;;;;;;;5076227;28;20050;-74
2022/08/14 12:25:29;;;;;;;12.10;10.98;;;;;;;;;;5076256;28;20120;-67
2022/08/14 12:27:56;;;;;;;13.13;11.93;;;;;;;;;;5075874;28;20104;-67
2022/08/14 12:30:42;;;;;;;12.27;11.07;;;;;;;;;;5075961;28;20027;-68
2022/08/14 12:33:27;;;;;;;13.55;12.15;;;;;;;;;;5075347;28;20036;-66
2022/08/14 12:35:54;;;;;;;12.35;11.15;;;;;;;;;;5086030;28;20041;-67
2022/08/14 12:38:31;;;;;;;11.68;10.35;;;;;;;;;;5075431;28;20076;-65
2022/08/14 12:40:57;;;;;;;11.85;10.70;;;;;;;;;;5075828;28;20027;-65
2022/08/14 12:43:23;;;;;;;11.25;10.15;;;;;;;;;;5075647;28;20029;-68
2022/08/14 12:45:53;;;;;;;13.18;11.77;;;;;;;;;;5075607;28;20032;-72
2022/08/14 12:48:20;;;;;;;15.82;10.57;;;;;;;;;;5075450;28;20024;-65
2022/08/14 12:50:46;;;;;;;11.60;10.25;;;;;;;;;;5075829;28;20103;-74
2022/08/14 12:53:13;;;;;;;13.75;10.25;;;;;;;;;;5075596;28;20102;-73
2022/08/14 12:55:40;;;;;;;10.40;9.18;;;;;;;;;;5075340;28;20025;-71
2022/08/14 12:58:07;;;;;;;11.48;9.43;;;;;;;;;;5075585;28;20032;-76
2022/08/14 13:00:37;;;;;;;9.23;8.02;;;;;;;;;;5075314;28;20417;-79
2022/08/14 13:03:04;;;;;;;8.85;7.95;;;;;;;;;;5075345;28;20071;-79
2022/08/14 13:05:32;;;;;;;8.23;7.43;;;;;;;;;;5075256;28;20024;-79
2022/08/14 13:07:59;;;;;;;9.63;8.63;;;;;;;;;;5075358;28;20035;-74
2022/08/14 13:10:25;;;;;;;11.60;8.20;;;;;;;;;;5075337;28;20020;-66
2022/08/14 13:12:55;;;;;;;9.07;8.13;;;;;;;;;;5074334;28;20021;-67
2022/08/14 13:15:21;;;;;;;9.45;8.43;;;;;;;;;;5075149;28;20028;-74
2022/08/14 13:17:51;;;;;;;12.93;9.00;;;;;;;;;;5075148;28;20429;-69
2022/08/14 13:20:19;;;;;;;8.73;7.80;;;;;;;;;;5074992;28;20024;-67
2022/08/14 13:22:45;;;;;;;12.38;9.25;;;;;;;;;;5073594;28;20028;-66
2022/08/14 13:25:13;;;;;;;9.88;8.88;;;;;;;;;;5074871;28;20046;-72
2022/08/14 13:27:39;;;;;;;15.25;12.48;;;;;;;;;;5074984;28;20025;-68
2022/08/14 13:30:07;;;;;;;17.13;14.63;;;;;;;;;;5083465;28;20099;-68
2022/08/14 13:32:38;;;;;;;15.80;13.68;;;;;;;;;;5094279;28;20128;-67
2022/08/14 13:35:05;;;;;;;11.07;9.98;;;;;;;;;;5088742;28;20104;-71
2022/08/14 13:37:31;;;;;;;13.05;11.75;;;;;;;;;;5075193;28;20072;-77
2022/08/14 13:39:57;;;;;;;11.85;10.10;;;;;;;;;;5074686;28;20422;-75
2022/08/14 13:42:26;;;;;;;12.55;9.93;;;;;;;;;;5074753;28;20067;-79
2022/08/14 13:44:53;;;;;;;9.45;8.55;;;;;;;;;;5074685;28;20068;-78
2022/08/14 13:47:24;;;;;;;10.75;9.30;;;;;;;;;;5074737;28;20052;-76
2022/08/14 13:49:50;;;;;;;;;;;;;;;;;;5074917;28;20020;-79
2022/08/14 13:52:18;;;;;;;10.55;9.55;;;;;;;;;;5074307;28;19958;-69
2022/08/14 13:54:48;;;;;;;9.73;8.73;;;;;;;;;;5074758;28;20444;-67
2022/08/14 13:57:16;;;;;;;12.87;10.03;;;;;;;;;;5074454;28;20405;-79
2022/08/14 13:59:50;;;;;;;13.43;9.70;;;;;;;;;;5074299;28;20482;-77
2022/08/14 14:02:18;;;;;;;22.35;10.18;;;;;;;;;;5074015;28;20039;-75
2022/08/14 14:04:48;;;;;;;11.60;9.90;;;;;;;;;;5074198;28;20048;-73
2022/08/14 14:07:20;;;;;;;14.27;10.30;;;;;;;;;;5073889;28;20471;-76
2022/08/14 14:09:47;;;;;;;18.45;10.65;;;;;;;;;;5073978;28;20055;-79
2022/08/14 14:12:14;;;;;;;14.63;9.45;;;;;;;;;;5075245;28;20028;-76
2022/08/14 14:14:41;;;;;;;12.82;9.85;;;;;;;;;;5086581;28;20031;-78
2022/08/14 14:17:08;;;;;;;11.05;9.48;;;;;;;;;;5073924;28;20078;-77
2022/08/14 14:19:34;;;;;;;11.43;9.57;;;;;;;;;;5073729;28;20479;-78
2022/08/14 14:22:07;;;;;;;11.13;9.38;;;;;;;;;;5073966;28;20475;-73
2022/08/14 14:24:34;;;;;;;10.40;9.30;;;;;;;;;;5073614;28;20028;-76
2022/08/14 14:27:01;;;;;;;13.70;10.55;;;;;;;;;;5073781;28;20074;-77
2022/08/14 14:29:29;;;;;;;11.15;9.23;;;;;;;;;;5074065;28;20479;-75
2022/08/14 14:31:57;;;;;;;10.68;9.57;;;;;;;;;;5073569;28;20090;-78
2022/08/14 14:34:24;;;;;;;11.93;10.15;;;;;;;;;;5085542;28;20110;-79
2022/08/14 14:36:51;;;;;;;12.07;9.85;;;;;;;;;;5075048;28;20067;-79
2022/08/14 14:39:20;;;;;;;9.27;8.38;;;;;;;;;;5073941;28;20032;-78
2022/08/14 14:41:49;;;;;;;9.68;8.75;;;;;;;;;;5073573;28;20388;-78
2022/08/14 14:44:17;;;;;;;10.88;9.77;;;;;;;;;;5073403;28;20028;-78
2022/08/14 14:46:49;;;;;;;10.18;9.05;;;;;;;;;;5073653;28;20409;-75